Time;durP1;ratioP1;P1;durP2;ratioP2;P2;SDS_P1;SDS_P2;PMS_P1;PMS_P2;Temp;Humidity;BMP_temperature;BMP_pressure;BME280_temperature;BME280_humidity;BME280_pressure;Samples;Min_cycle;Max_cycle;Signal;HPM_P1;HPM_P2
2022/01/26 00:00:07;;;;;;;96.60;57.58;;;9.20;77.70;;;;;;5034068;28;20536;-68
2022/01/26 00:08:02;;;;;;;97.57;59.08;;;9.20;78.00;;;;;;5033505;28;20111;-62
2022/01/26 00:10:28;;;;;;;100.97;60.88;;;9.10;78.20;;;;;;5033308;28;20117;-65
2022/01/26 00:12:54;;;;;;;97.18;60.22;;;9.10;78.50;;;;;;5033409;28;20108;-60
2022/01/26 00:15:19;;;;;;;91.43;58.92;;;9.20;77.80;;;;;;5033815;28;20032;-60
2022/01/26 00:17:45;;;;;;;91.53;57.38;;;9.10;77.70;;;;;;5033723;28;20063;-68
2022/01/26 00:22:56;;;;;;;99.22;58.90;;;9.10;77.80;;;;;;5033494;28;20477;-65
2022/01/26 00:28:58;;;;;;;96.15;60.42;;;9.10;78.20;;;;;;5033527;28;20071;-68
2022/01/26 00:38:50;;;;;;;96.53;57.92;;;9.10;77.70;;;;;;5033275;28;20087;-67
2022/01/26 00:41:31;;;;;;;95.80;57.55;;;9.10;78.00;;;;;;5033254;28;20022;-59
2022/01/26 00:43:57;;;;;;;90.57;57.25;;;9.10;78.10;;;;;;5033097;28;20116;-60
2022/01/26 00:46:23;;;;;;;91.30;57.33;;;9.10;78.10;;;;;;5033218;28;20021;-59
2022/01/26 00:48:50;;;;;;;96.32;58.97;;;9.10;78.30;;;;;;5033111;28;20387;-59
2022/01/26 00:51:19;;;;;;;91.32;58.28;;;9.10;78.70;;;;;;5032724;28;20112;-59
2022/01/26 00:53:50;;;;;;;95.93;57.63;;;9.00;78.30;;;;;;5033172;28;20477;-60
2022/01/26 00:56:16;;;;;;;90.20;57.17;;;9.10;78.60;;;;;;5032976;28;20057;-58
2022/01/26 00:58:42;;;;;;;96.80;58.15;;;9.00;78.30;;;;;;5032933;28;20049;-59
2022/01/26 01:01:08;;;;;;;92.68;57.97;;;9.00;78.30;;;;;;5033180;28;20021;-60
2022/01/26 01:03:38;;;;;;;92.18;57.38;;;9.10;78.60;;;;;;5033128;28;20105;-59
2022/01/26 01:06:11;;;;;;;94.47;59.13;;;9.00;78.70;;;;;;5033034;28;20025;-59
2022/01/26 01:08:39;;;;;;;96.05;59.15;;;9.00;78.80;;;;;;5032787;28;20029;-63
2022/01/26 01:11:05;;;;;;;98.53;60.58;;;9.00;78.80;;;;;;5032767;28;20030;-60
2022/01/26 01:13:36;;;;;;;97.80;60.35;;;9.00;78.80;;;;;;5032823;28;20037;-59
2022/01/26 01:16:04;;;;;;;93.95;58.65;;;9.00;79.10;;;;;;5033056;28;20026;-66
2022/01/26 01:19:28;;;;;;;97.10;59.45;;;9.00;79.10;;;;;;5032593;28;20013;-61
2022/01/26 01:31:47;;;;;;;99.22;61.13;;;9.00;79.60;;;;;;5036748;28;20103;-58
2022/01/26 01:34:20;;;;;;;91.05;58.78;;;9.00;79.50;;;;;;5036084;28;20379;-58
2022/01/26 01:36:50;;;;;;;97.10;62.45;;;9.00;79.60;;;;;;5036749;28;20025;-59
2022/01/26 01:39:17;;;;;;;101.38;61.33;;;8.90;79.80;;;;;;5036356;28;20487;-68
2022/01/26 01:41:44;;;;;;;98.00;61.65;;;8.90;79.90;;;;;;5036549;28;20493;-68
2022/01/26 01:44:11;;;;;;;97.25;58.75;;;8.90;79.80;;;;;;5036346;28;20463;-59
2022/01/26 01:46:38;;;;;;;99.43;62.65;;;8.90;80.00;;;;;;5036493;28;20048;-61
2022/01/26 01:49:06;;;;;;;106.07;64.93;;;8.90;79.90;;;;;;5036355;28;20021;-67
2022/01/26 01:51:35;;;;;;;101.35;60.80;;;8.90;80.20;;;;;;5036285;28;20040;-68
2022/01/26 01:54:02;;;;;;;101.25;61.75;;;8.90;80.20;;;;;;5036316;28;20021;-69
2022/01/26 01:56:28;;;;;;;100.13;63.00;;;8.90;80.20;;;;;;5036127;28;20445;-67
2022/01/26 01:58:57;;;;;;;99.30;62.72;;;8.90;80.20;;;;;;5036230;28;20052;-65
2022/01/26 02:01:24;;;;;;;97.38;60.35;;;8.90;80.50;;;;;;5036272;28;20029;-63
2022/01/26 02:03:50;;;;;;;103.47;62.88;;;8.80;80.40;;;;;;5035822;28;20029;-69
2022/01/26 02:06:16;;;;;;;98.55;61.88;;;8.80;80.70;;;;;;5036005;28;20033;-60
2022/01/26 02:08:42;;;;;;;100.03;63.10;;;8.80;80.60;;;;;;5036180;28;20516;-59
2022/01/26 02:11:10;;;;;;;99.10;60.03;;;8.80;80.70;;;;;;5035838;28;20029;-60
2022/01/26 02:14:25;;;;;;;101.70;61.67;;;8.80;80.70;;;;;;5035854;28;20033;-67
2022/01/26 02:16:29;;;;;;;97.45;61.33;;;8.80;80.80;;;;;;5028049;28;20041;-69
2022/01/26 02:52:14;;;;;;;96.88;57.97;;;8.70;81.30;;;;;;5034845;28;20043;-60
2022/01/26 03:02:50;;;;;;;94.90;57.67;;;8.60;81.40;;;;;;5035061;28;20034;-60
2022/01/26 03:05:18;;;;;;;98.70;59.65;;;8.60;81.40;;;;;;5034911;28;20061;-57
2022/01/26 03:07:51;;;;;;;95.68;57.70;;;8.60;81.30;;;;;;5034566;28;20443;-59
2022/01/26 03:10:26;;;;;;;97.25;61.17;;;8.60;81.40;;;;;;5034995;28;20036;-59
2022/01/26 03:13:07;;;;;;;100.28;60.47;;;8.60;81.60;;;;;;5034926;28;20038;-59
2022/01/26 03:15:39;;;;;;;94.70;57.60;;;8.60;81.70;;;;;;5034578;28;20034;-59
2022/01/26 03:18:31;;;;;;;96.30;58.83;;;8.60;82.00;;;;;;5034452;28;20478;-60
2022/01/26 03:20:59;;;;;;;98.53;57.42;;;8.60;81.90;;;;;;5030475;28;20036;-58
2022/01/26 03:34:01;;;;;;;104.68;60.85;;;8.60;83.00;;;;;;5034338;28;20025;-59
2022/01/26 03:36:31;;;;;;;107.95;61.45;;;8.60;83.00;;;;;;5033847;28;20406;-60
2022/01/26 03:39:09;;;;;;;101.00;58.97;;;8.50;83.10;;;;;;5033795;28;20156;-60
2022/01/26 03:41:43;;;;;;;101.35;58.10;;;8.50;83.50;;;;;;5026499;28;20026;-58
2022/01/26 03:44:09;;;;;;;97.28;58.38;;;8.60;83.80;;;;;;5013585;28;20032;-60
2022/01/26 03:46:35;;;;;;;104.38;58.42;;;8.50;83.70;;;;;;5021664;28;20022;-62
2022/01/26 03:49:02;;;;;;;103.70;60.35;;;8.60;84.10;;;;;;5033061;28;20033;-66
2022/01/26 03:51:28;;;;;;;98.07;57.83;;;8.50;84.00;;;;;;5033520;28;20037;-68
2022/01/26 03:53:54;;;;;;;103.90;58.08;;;8.50;84.50;;;;;;5033683;28;20265;-63
2022/01/26 03:56:19;;;;;;;99.68;56.83;;;8.50;84.60;;;;;;5033923;28;20030;-59
2022/01/26 03:58:45;;;;;;;98.97;56.42;;;8.50;84.80;;;;;;5033477;28;20513;-69
2022/01/26 04:01:10;;;;;;;99.50;57.97;;;8.50;85.00;;;;;;5034080;28;20483;-64
2022/01/26 04:03:36;;;;;;;99.63;57.90;;;8.40;85.20;;;;;;5033703;28;20359;-60
2022/01/26 04:06:02;;;;;;;99.65;57.65;;;8.50;85.40;;;;;;5033851;28;20037;-69
2022/01/26 04:08:30;;;;;;;99.78;55.35;;;8.40;85.40;;;;;;5033870;28;20100;-60
2022/01/26 04:11:22;;;;;;;104.05;57.65;;;8.40;85.70;;;;;;5033919;28;20033;-62
2022/01/26 04:13:49;;;;;;;105.28;58.08;;;8.40;86.00;;;;;;5033265;28;20044;-69
2022/01/26 04:16:14;;;;;;;101.63;56.35;;;8.40;86.10;;;;;;5033632;28;20022;-64
2022/01/26 04:18:41;;;;;;;99.40;55.55;;;8.40;86.30;;;;;;5033530;28;20107;-69
2022/01/26 04:23:55;;;;;;;101.90;57.55;;;8.40;86.40;;;;;;5033439;28;20423;-63
2022/01/26 04:26:28;;;;;;;99.28;56.10;;;8.40;86.60;;;;;;5033747;28;20025;-68
2022/01/26 04:28:59;;;;;;;93.00;54.70;;;8.40;86.60;;;;;;5032984;28;20052;-65
2022/01/26 04:31:25;;;;;;;96.93;55.35;;;8.40;86.70;;;;;;5033841;28;20037;-62
2022/01/26 04:33:52;;;;;;;96.10;55.60;;;8.40;86.90;;;;;;5033177;28;20030;-64
2022/01/26 04:36:25;;;;;;;101.97;54.75;;;8.40;87.20;;;;;;5033523;28;20083;-61
2022/01/26 04:38:55;;;;;;;97.53;56.05;;;8.40;87.70;;;;;;5033388;28;20036;-61
2022/01/26 04:43:56;;;;;;;93.68;53.75;;;8.40;87.40;;;;;;5033438;28;20459;-66
2022/01/26 04:46:24;;;;;;;92.43;54.42;;;8.40;87.50;;;;;;5033335;28;20021;-61
2022/01/26 04:48:50;;;;;;;93.47;53.13;;;8.30;87.50;;;;;;5033166;28;20028;-67
2022/01/26 04:51:15;;;;;;;90.13;52.33;;;8.30;87.60;;;;;;5033173;28;20109;-68
2022/01/26 04:53:41;;;;;;;91.88;51.72;;;8.30;87.60;;;;;;5033018;28;20037;-58
2022/01/26 04:56:07;;;;;;;92.68;53.60;;;8.30;87.80;;;;;;5032877;28;20018;-60
2022/01/26 04:58:32;;;;;;;92.05;52.85;;;8.30;87.80;;;;;;5032820;28;20048;-59
2022/01/26 05:00:58;;;;;;;92.85;54.80;;;8.30;87.80;;;;;;5033068;28;20033;-60
2022/01/26 05:03:23;;;;;;;90.80;51.38;;;8.30;87.90;;;;;;5033002;28;20479;-66
2022/01/26 05:05:49;;;;;;;90.75;52.60;;;8.30;87.70;;;;;;5032823;28;20586;-64
2022/01/26 05:08:14;;;;;;;89.10;52.40;;;8.30;87.80;;;;;;5033136;28;20025;-58
2022/01/26 05:10:43;;;;;;;88.43;52.15;;;8.30;87.90;;;;;;5032401;28;20034;-59
2022/01/26 05:13:11;;;;;;;91.07;52.40;;;8.30;88.10;;;;;;5032845;28;20544;-61
2022/01/26 05:15:36;;;;;;;87.20;52.60;;;8.30;88.00;;;;;;5032814;28;20040;-60
2022/01/26 05:18:02;;;;;;;88.03;52.10;;;8.30;88.20;;;;;;5032936;28;20018;-65
2022/01/26 05:20:28;;;;;;;85.63;51.72;;;8.30;88.20;;;;;;5032957;28;20068;-61
2022/01/26 05:22:53;;;;;;;87.03;49.40;;;8.30;88.40;;;;;;5032723;28;20493;-61
2022/01/26 05:25:20;;;;;;;87.45;49.92;;;8.20;88.40;;;;;;5032464;28;20495;-63
2022/01/26 05:27:46;;;;;;;90.28;50.58;;;8.20;88.50;;;;;;5033071;28;20021;-61
2022/01/26 05:30:12;;;;;;;86.15;50.00;;;8.30;88.30;;;;;;5032660;28;20025;-61
2022/01/26 05:32:38;;;;;;;85.60;51.40;;;8.30;88.30;;;;;;5032810;28;20034;-63
2022/01/26 05:35:03;;;;;;;84.50;49.67;;;8.20;88.40;;;;;;5032338;28;20036;-64
2022/01/26 05:37:29;;;;;;;86.68;50.22;;;8.20;88.50;;;;;;5032761;28;20040;-69
2022/01/26 05:39:55;;;;;;;86.45;48.85;;;8.20;88.60;;;;;;5032160;28;20021;-66
2022/01/26 05:42:20;;;;;;;85.90;49.10;;;8.20;88.60;;;;;;5032906;28;20471;-65
2022/01/26 05:44:46;;;;;;;86.15;49.05;;;8.20;88.60;;;;;;5032417;28;20021;-70
2022/01/26 05:47:17;;;;;;;92.32;53.30;;;8.20;88.60;;;;;;5032664;28;20033;-60
2022/01/26 05:49:42;;;;;;;82.65;47.67;;;8.20;88.60;;;;;;5032619;28;20028;-62
2022/01/26 05:52:08;;;;;;;83.32;48.50;;;8.20;88.80;;;;;;5032533;28;20045;-63
2022/01/26 05:54:34;;;;;;;82.32;48.97;;;8.10;88.80;;;;;;5032306;28;20018;-62
2022/01/26 05:56:59;;;;;;;79.15;47.45;;;8.20;88.90;;;;;;5032815;28;20071;-65
2022/01/26 05:59:25;;;;;;;81.82;48.40;;;8.20;88.90;;;;;;5032734;28;20442;-68
2022/01/26 06:01:51;;;;;;;85.13;49.35;;;8.10;88.90;;;;;;5030653;28;20359;-60
2022/01/26 06:04:17;;;;;;;78.45;48.97;;;8.10;89.00;;;;;;5031310;28;20476;-66
2022/01/26 06:06:43;;;;;;;76.97;46.03;;;8.10;89.00;;;;;;5031143;28;20030;-61
2022/01/26 06:09:08;;;;;;;81.20;48.63;;;8.10;89.10;;;;;;5034569;28;20029;-61
2022/01/26 06:11:34;;;;;;;84.90;49.42;;;8.20;89.20;;;;;;5035687;28;20057;-66
2022/01/26 06:14:00;;;;;;;80.60;48.50;;;8.10;89.10;;;;;;5035770;28;20037;-65
2022/01/26 06:16:25;;;;;;;77.82;47.40;;;8.10;89.20;;;;;;5035898;28;20026;-69
2022/01/26 06:18:51;;;;;;;79.30;47.92;;;8.10;89.10;;;;;;5035886;28;20056;-62
2022/01/26 06:21:17;;;;;;;76.38;46.33;;;8.10;89.20;;;;;;5035727;28;20420;-66
2022/01/26 06:23:43;;;;;;;78.20;47.60;;;8.10;89.20;;;;;;5035690;28;20371;-65
2022/01/26 06:26:09;;;;;;;80.60;48.17;;;8.10;89.00;;;;;;5025929;28;20036;-60
2022/01/26 06:28:35;;;;;;;81.90;48.50;;;8.10;89.10;;;;;;5019880;28;20014;-63
2022/01/26 06:31:08;;;;;;;81.28;48.63;;;8.10;89.00;;;;;;5023745;28;20024;-63
2022/01/26 06:33:35;;;;;;;73.55;45.42;;;8.00;89.30;;;;;;5026161;28;20028;-68
2022/01/26 06:36:01;;;;;;;78.90;46.63;;;8.10;89.20;;;;;;5023134;28;20025;-67
2022/01/26 06:38:28;;;;;;;77.00;46.13;;;8.10;89.10;;;;;;5020297;28;20030;-65
2022/01/26 06:40:54;;;;;;;73.72;46.08;;;8.10;89.10;;;;;;5026825;28;20049;-59
2022/01/26 06:43:23;;;;;;;74.03;45.67;;;8.10;89.20;;;;;;5013272;28;20040;-62
2022/01/26 06:45:58;;;;;;;69.85;44.97;;;8.10;89.30;;;;;;5024331;28;20044;-68
2022/01/26 06:51:09;;;;;;;73.90;45.88;;;8.10;89.20;;;;;;5021127;28;20624;-67
2022/01/26 06:53:35;;;;;;;72.95;45.88;;;8.20;89.10;;;;;;5033318;28;20389;-68
2022/01/26 06:56:00;;;;;;;73.45;46.47;;;8.20;88.90;;;;;;5034791;28;20029;-66
2022/01/26 06:58:26;;;;;;;74.95;46.42;;;8.20;88.80;;;;;;5034321;28;20021;-63
2022/01/26 07:00:51;;;;;;;69.43;42.47;;;8.20;88.70;;;;;;5024450;28;20359;-62
2022/01/26 07:03:17;;;;;;;67.60;41.75;;;8.20;88.90;;;;;;5026460;28;20517;-62
2022/01/26 07:05:44;;;;;;;66.53;41.45;;;7.90;90.10;;;;;;5025805;28;20034;-62
2022/01/26 07:08:09;;;;;;;70.32;41.60;;;7.80;90.70;;;;;;5032381;28;20026;-59
2022/01/26 07:10:35;;;;;;;69.70;41.53;;;7.80;90.50;;;;;;5030838;28;20056;-59
2022/01/26 07:13:02;;;;;;;64.45;41.53;;;7.80;90.50;;;;;;5032940;28;20371;-65
2022/01/26 07:23:43;;;;;;;65.28;41.05;;;7.90;90.20;;;;;;5034818;28;20111;-58
2022/01/26 07:26:08;;;;;;;57.95;37.10;;;7.90;90.30;;;;;;5027278;28;20471;-59
2022/01/26 07:28:39;;;;;;;64.82;40.15;;;7.90;90.50;;;;;;5023340;28;20018;-64
2022/01/26 07:31:05;;;;;;;67.03;41.88;;;8.00;90.30;;;;;;5030397;28;20033;-56
2022/01/26 07:33:32;;;;;;;67.32;43.30;;;8.00;90.10;;;;;;5033890;28;20431;-59
2022/01/26 07:35:58;;;;;;;68.53;44.80;;;8.10;89.70;;;;;;5033689;28;20108;-59
2022/01/26 07:38:25;;;;;;;69.82;44.08;;;8.30;88.90;;;;;;5033974;28;20030;-64
2022/01/26 07:40:51;;;;;;;68.60;43.25;;;8.30;89.00;;;;;;5033645;28;20025;-61
2022/01/26 07:43:16;;;;;;;64.22;43.40;;;8.30;88.20;;;;;;5031519;28;20525;-65
2022/01/26 07:45:42;;;;;;;68.70;44.08;;;8.40;88.30;;;;;;5034183;28;20044;-63
2022/01/26 07:48:08;;;;;;;69.15;44.60;;;8.40;88.20;;;;;;5034134;28;20021;-61
2022/01/26 07:50:34;;;;;;;67.38;42.08;;;8.30;88.40;;;;;;5033055;28;20109;-63
2022/01/26 07:53:00;;;;;;;67.43;41.45;;;8.40;88.20;;;;;;5034052;28;20025;-59
2022/01/26 07:55:26;;;;;;;66.15;42.78;;;8.40;88.10;;;;;;5034026;28;20017;-61
2022/01/26 07:57:54;;;;;;;64.13;41.60;;;8.40;88.10;;;;;;5029175;28;20034;-62
2022/01/26 08:00:19;;;;;;;64.93;43.72;;;8.40;87.90;;;;;;5032406;28;20390;-60
2022/01/26 08:02:45;;;;;;;69.22;44.97;;;8.50;88.00;;;;;;5032469;28;20021;-62
2022/01/26 08:05:13;;;;;;;65.00;44.38;;;8.50;88.00;;;;;;5032423;28;20463;-65
2022/01/26 08:07:38;;;;;;;66.20;44.75;;;8.50;87.90;;;;;;5032500;28;20061;-65
2022/01/26 08:10:06;;;;;;;65.43;43.30;;;8.50;87.90;;;;;;5032917;28;20060;-61
2022/01/26 08:12:32;;;;;;;69.22;42.67;;;8.50;87.90;;;;;;5031616;28;20026;-59
2022/01/26 08:14:57;;;;;;;64.65;43.00;;;8.50;87.90;;;;;;5029922;28;20057;-62
2022/01/26 08:17:23;;;;;;;65.93;42.65;;;8.50;88.00;;;;;;5031765;28;20047;-60
2022/01/26 08:19:52;;;;;;;68.60;42.78;;;8.50;88.00;;;;;;5031451;28;20033;-60
2022/01/26 08:22:19;;;;;;;70.47;44.72;;;8.50;88.00;;;;;;5032165;28;20111;-61
2022/01/26 08:24:45;;;;;;;71.15;45.88;;;8.50;87.90;;;;;;5032125;28;20057;-60
2022/01/26 08:27:13;;;;;;;62.90;40.28;;;8.50;88.00;;;;;;5032765;28;20051;-61
2022/01/26 08:29:44;;;;;;;63.63;42.45;;;8.40;88.50;;;;;;5032309;28;20025;-60
2022/01/26 08:32:10;;;;;;;64.75;43.30;;;8.50;88.20;;;;;;5032767;28;20048;-60
2022/01/26 08:34:36;;;;;;;59.58;40.13;;;8.50;87.60;;;;;;5031516;28;20052;-59
2022/01/26 08:37:03;;;;;;;57.92;38.40;;;8.50;87.70;;;;;;5032353;28;20033;-64
2022/01/26 08:39:28;;;;;;;61.63;39.45;;;8.50;87.70;;;;;;5032195;28;20028;-61
2022/01/26 08:41:54;;;;;;;54.85;37.63;;;8.50;87.80;;;;;;5032039;28;20022;-60
2022/01/26 08:44:20;;;;;;;61.00;39.90;;;8.50;87.80;;;;;;5031993;28;20028;-60
2022/01/26 08:46:46;;;;;;;58.03;38.00;;;8.50;87.40;;;;;;5031709;28;20398;-60
2022/01/26 08:49:11;;;;;;;59.92;39.88;;;8.50;87.20;;;;;;5031811;28;20103;-60
2022/01/26 08:51:38;;;;;;;54.65;38.53;;;8.50;87.10;;;;;;5031771;28;20065;-60
2022/01/26 08:54:04;;;;;;;52.58;35.75;;;8.60;87.00;;;;;;5031996;28;20072;-59
2022/01/26 08:56:30;;;;;;;50.58;35.53;;;8.60;86.80;;;;;;5032489;28;20426;-62
2022/01/26 08:58:56;;;;;;;48.03;35.85;;;8.50;87.30;;;;;;5032014;28;20056;-61
2022/01/26 09:01:21;;;;;;;49.85;34.95;;;8.50;86.80;;;;;;5032404;28;20064;-58
2022/01/26 09:03:47;;;;;;;47.22;34.90;;;8.50;86.70;;;;;;5030540;28;20067;-60
2022/01/26 09:06:13;;;;;;;38.70;27.25;;;8.50;86.50;;;;;;5030534;28;20033;-63
2022/01/26 09:08:43;;;;;;;54.60;37.75;;;8.50;88.50;;;;;;5031566;28;20017;-61
2022/01/26 09:11:09;;;;;;;55.90;37.22;;;8.60;87.30;;;;;;5031943;28;20030;-60
2022/01/26 09:13:35;;;;;;;42.80;30.02;;;8.70;85.60;;;;;;5032813;28;20435;-63
2022/01/26 09:16:04;;;;;;;56.75;37.58;;;8.70;87.80;;;;;;5032870;28;20029;-60
2022/01/26 09:18:40;;;;;;;53.15;36.33;;;8.80;86.80;;;;;;5031914;28;20022;-60
2022/01/26 09:21:06;;;;;;;55.95;38.58;;;8.80;84.90;;;;;;5032436;28;20022;-59
2022/01/26 09:23:32;;;;;;;55.08;37.90;;;8.80;85.00;;;;;;5032858;28;20021;-60
2022/01/26 09:25:58;;;;;;;50.92;35.95;;;8.80;84.90;;;;;;5032732;28;20117;-60
2022/01/26 09:28:24;;;;;;;48.78;35.22;;;8.80;84.90;;;;;;5032469;28;20538;-59
2022/01/26 09:30:50;;;;;;;54.45;36.53;;;8.80;85.20;;;;;;5032319;28;20387;-61
2022/01/26 09:33:16;;;;;;;52.10;35.13;;;8.70;85.50;;;;;;5032237;28;20030;-63
2022/01/26 09:35:41;;;;;;;42.92;30.60;;;8.60;85.80;;;;;;5032113;28;20065;-61
2022/01/26 09:38:07;;;;;;;44.53;29.15;;;8.50;86.60;;;;;;5032698;28;20026;-60
2022/01/26 09:40:33;;;;;;;46.30;31.88;;;8.50;88.20;;;;;;5024489;28;20026;-61
2022/01/26 09:42:59;;;;;;;43.42;29.90;;;8.50;87.50;;;;;;5028517;28;20036;-61
2022/01/26 09:45:25;;;;;;;43.60;29.77;;;8.50;87.50;;;;;;5035325;28;20030;-64
2022/01/26 09:47:51;;;;;;;38.70;26.23;;;8.60;87.20;;;;;;5034268;28;20484;-63
2022/01/26 09:50:17;;;;;;;37.72;26.77;;;8.60;87.90;;;;;;5035704;28;20026;-64
2022/01/26 09:52:45;;;;;;;40.40;26.95;;;8.70;87.60;;;;;;5036331;28;20037;-61
2022/01/26 09:55:11;;;;;;;43.20;30.23;;;8.80;87.40;;;;;;5036033;28;20025;-65
2022/01/26 09:57:38;;;;;;;38.38;25.90;;;8.80;86.20;;;;;;5035352;28;20406;-61
2022/01/26 10:00:06;;;;;;;41.38;31.13;;;8.80;86.60;;;;;;5035588;28;20061;-62
2022/01/26 10:02:35;;;;;;;40.83;29.70;;;8.80;85.80;;;;;;5032553;28;20116;-63
2022/01/26 10:05:07;;;;;;;43.05;29.50;;;8.70;86.10;;;;;;5034039;28;20402;-61
2022/01/26 10:15:35;;;;;;;35.92;26.02;;;8.70;86.10;;;;;;5035571;28;20052;-65
2022/01/26 10:18:14;;;;;;;36.28;26.15;;;8.70;86.70;;;;;;5035394;28;20346;-64
2022/01/26 10:20:49;;;;;;;45.10;32.03;;;8.90;86.40;;;;;;5033502;28;20036;-65
2022/01/26 10:23:22;;;;;;;41.97;29.20;;;8.90;85.20;;;;;;5034942;28;20029;-65
2022/01/26 10:26:14;;;;;;;43.13;30.40;;;8.80;85.90;;;;;;5035219;28;20162;-65
2022/01/26 10:28:56;;;;;;;34.30;23.15;;;8.90;86.30;;;;;;5035236;28;20033;-65
2022/01/26 10:31:30;;;;;;;40.78;29.67;;;9.00;86.80;;;;;;5035219;28;20064;-64
2022/01/26 10:34:00;;;;;;;39.83;28.50;;;9.10;85.30;;;;;;5035541;28;20096;-64
2022/01/26 10:36:35;;;;;;;43.63;31.23;;;9.00;85.40;;;;;;5035645;28;20033;-64
2022/01/26 10:39:07;;;;;;;44.70;31.05;;;9.00;85.20;;;;;;5035405;28;20018;-65
2022/01/26 10:41:37;;;;;;;45.60;30.30;;;8.90;85.60;;;;;;5035461;28;20024;-65
2022/01/26 10:44:04;;;;;;;35.90;23.70;;;8.90;85.50;;;;;;5034696;28;20017;-65
2022/01/26 10:46:39;;;;;;;33.92;23.95;;;9.10;86.90;;;;;;5035178;28;20029;-65
2022/01/26 10:54:36;;;;;;;39.88;27.98;;;9.30;85.10;;;;;;5026228;28;20037;-58
2022/01/26 10:57:05;;;;;;;50.33;36.20;;;9.40;84.60;;;;;;5031571;28;20033;-59
2022/01/26 10:59:37;;;;;;;47.95;35.63;;;9.40;83.50;;;;;;5032256;28;20025;-56
2022/01/26 11:02:07;;;;;;;47.00;34.90;;;9.30;83.20;;;;;;5031407;28;20032;-60
2022/01/26 11:04:34;;;;;;;50.50;36.42;;;9.30;83.40;;;;;;5033504;28;20100;-59
2022/01/26 11:07:02;;;;;;;55.47;37.65;;;9.30;83.60;;;;;;5033570;28;20022;-60
2022/01/26 11:09:31;;;;;;;57.50;40.78;;;9.30;83.40;;;;;;5034377;28;20025;-60
2022/01/26 11:12:10;;;;;;;51.63;38.42;;;9.30;83.20;;;;;;5033217;28;20037;-60
2022/01/26 11:14:40;;;;;;;58.38;41.20;;;9.30;83.50;;;;;;5027453;28;20040;-59
2022/01/26 11:17:06;;;;;;;48.80;35.80;;;9.30;83.50;;;;;;5033167;28;20100;-60
2022/01/26 11:19:46;;;;;;;53.08;37.95;;;9.20;84.00;;;;;;5032398;28;20091;-60
2022/01/26 11:22:14;;;;;;;53.03;40.47;;;9.10;84.30;;;;;;5030782;28;20132;-60
2022/01/26 11:24:45;;;;;;;54.83;39.40;;;9.20;83.60;;;;;;5034015;28;20029;-60
2022/01/26 11:27:11;;;;;;;57.15;39.45;;;9.20;83.80;;;;;;5032233;28;20072;-58
2022/01/26 11:29:42;;;;;;;58.05;40.28;;;9.20;84.00;;;;;;5030888;28;20010;-59
2022/01/26 11:32:13;;;;;;;48.83;36.30;;;9.20;84.00;;;;;;5025945;28;20044;-60
2022/01/26 11:34:41;;;;;;;51.28;36.75;;;9.10;84.60;;;;;;5033138;28;20445;-63
2022/01/26 11:37:09;;;;;;;47.67;36.38;;;8.90;85.00;;;;;;5034063;28;20120;-64
2022/01/26 11:45:02;;;;;;;49.78;35.65;;;9.00;85.10;;;;;;5025140;28;20402;-62
2022/01/26 11:45:11;;;;;;;44.30;33.72;;;8.90;85.00;;;;;;5033363;28;20033;-67
2022/01/26 11:47:45;;;;;;;37.33;26.50;;;9.00;85.60;;;;;;5022557;28;20036;-68
2022/01/26 11:50:20;;;;;;;36.05;24.00;;;9.20;86.10;;;;;;5013750;28;20072;-63
2022/01/26 11:53:04;;;;;;;38.90;25.15;;;9.50;85.50;;;;;;5016870;28;20069;-63
2022/01/26 11:55:43;;;;;;;43.17;31.33;;;9.70;84.70;;;;;;5028850;28;20033;-60
2022/01/26 11:58:19;;;;;;;48.75;36.13;;;9.70;83.30;;;;;;5031839;28;20033;-63
2022/01/26 12:01:07;;;;;;;49.78;37.97;;;9.60;82.50;;;;;;5024997;28;20118;-60
2022/01/26 12:03:42;;;;;;;54.67;39.97;;;9.70;82.00;;;;;;5015565;28;20467;-63
2022/01/26 12:06:14;;;;;;;53.28;40.45;;;9.70;82.00;;;;;;5027261;28;20029;-57
2022/01/26 12:08:39;;;;;;;53.50;40.75;;;9.60;82.00;;;;;;5021876;28;20026;-64
2022/01/26 12:11:13;;;;;;;55.85;40.50;;;9.60;82.60;;;;;;5029399;28;20052;-58
2022/01/26 12:13:40;;;;;;;57.78;41.42;;;9.60;82.50;;;;;;5022288;28;20033;-61
2022/01/26 12:16:15;;;;;;;57.78;40.00;;;9.50;82.50;;;;;;5021689;28;20032;-57
2022/01/26 12:18:57;;;;;;;54.78;41.30;;;9.50;82.70;;;;;;5014120;28;20036;-57
2022/01/26 12:33:01;;;;;;;47.58;31.30;;;10.00;82.80;;;;;;5007941;28;20510;-61
2022/01/26 12:35:53;;;;;;;51.17;36.25;;;10.00;82.80;;;;;;5025235;28;20072;-61
2022/01/26 12:38:29;;;;;;;46.45;32.13;;;10.00;82.50;;;;;;5027444;28;20028;-58
2022/01/26 12:43:40;;;;;;;45.95;32.85;;;10.00;82.80;;;;;;5029630;28;20040;-63
2022/01/26 12:46:09;;;;;;;34.05;24.27;;;10.00;83.00;;;;;;5026845;28;20475;-59
2022/01/26 12:48:39;;;;;;;33.63;23.27;;;10.00;84.40;;;;;;5026543;28;20055;-60
2022/01/26 12:51:06;;;;;;;40.63;29.17;;;10.20;84.20;;;;;;5028482;28;20064;-59
2022/01/26 12:53:35;;;;;;;33.60;24.17;;;10.30;83.00;;;;;;5023274;28;20040;-64
2022/01/26 12:56:04;;;;;;;31.35;22.40;;;10.30;83.60;;;;;;5021819;28;20424;-59
2022/01/26 12:58:37;;;;;;;43.70;32.75;;;10.30;83.50;;;;;;5022628;28;20447;-60
2022/01/26 13:01:20;;;;;;;46.75;35.80;;;10.40;81.70;;;;;;5024429;28;20017;-63
2022/01/26 13:03:49;;;;;;;47.97;35.67;;;10.40;81.70;;;;;;5025761;28;20025;-60
2022/01/26 13:06:24;;;;;;;29.67;20.65;;;10.40;81.60;;;;;;5026760;28;20026;-61
2022/01/26 13:08:57;;;;;;;51.13;34.63;;;10.40;85.10;;;;;;5024697;28;20471;-65
2022/01/26 13:11:28;;;;;;;51.03;35.28;;;10.40;81.60;;;;;;5016586;28;20044;-62
2022/01/26 13:14:12;;;;;;;45.97;33.30;;;10.40;81.20;;;;;;5030958;28;20080;-58
2022/01/26 13:16:53;;;;;;;35.58;24.52;;;10.20;81.30;;;;;;5021324;28;20022;-58
2022/01/26 13:19:39;;;;;;;32.53;23.17;;;10.30;83.50;;;;;;5025116;28;20390;-62
2022/01/26 13:25:00;;;;;;;31.30;23.83;;;10.60;82.30;;;;;;5011163;28;20513;-72
2022/01/26 13:30:07;;;;;;;27.95;18.27;;;10.90;82.30;;;;;;5032606;28;20490;-71
2022/01/26 13:35:57;;;;;;;26.95;19.48;;;11.10;81.50;;;;;;4946482;28;20048;-73
2022/01/26 13:38:40;;;;;;;27.38;20.50;;;11.10;81.90;;;;;;5027219;28;20037;-71
2022/01/26 13:41:21;;;;;;;27.77;19.55;;;11.20;81.30;;;;;;5026399;28;20037;-70
2022/01/26 14:00:03;;;;;;;27.80;18.77;;;11.50;81.50;;;;;;5019554;28;20072;-65
2022/01/26 14:02:32;;;;;;;30.08;20.77;;;11.50;80.90;;;;;;5027827;28;20029;-70
2022/01/26 14:04:58;;;;;;;26.88;18.73;;;11.50;80.40;;;;;;5019102;28;20029;-75
2022/01/26 14:07:23;;;;;;;39.88;27.65;;;11.60;80.60;;;;;;4998988;28;20125;-74
2022/01/26 14:09:49;;;;;;;50.30;34.95;;;11.50;79.10;;;;;;5030010;28;20036;-72
2022/01/26 14:12:20;;;;;;;50.33;35.22;;;11.40;78.40;;;;;;5030770;28;20503;-74
2022/01/26 14:14:51;;;;;;;50.05;34.97;;;11.30;78.60;;;;;;5019730;28;20044;-71
2022/01/26 14:17:26;;;;;;;54.20;37.87;;;11.10;78.60;;;;;;5020441;28;20430;-72
2022/01/26 14:27:52;;;;;;;39.47;25.60;;;10.80;80.70;;;;;;5032585;28;20034;-69
2022/01/26 14:30:31;;;;;;;41.40;27.70;;;11.00;80.50;;;;;;5025276;28;20014;-69
2022/01/26 14:33:15;;;;;;;34.22;22.88;;;11.40;79.40;;;;;;5012210;28;20475;-69
2022/01/26 15:20:10;;;;;;;59.20;41.70;;;11.00;78.20;;;;;;5028032;28;20094;-72
2022/01/26 15:48:47;;;;;;;52.35;39.10;;;10.40;80.70;;;;;;5034325;28;20036;-60
2022/01/26 15:51:31;;;;;;;56.22;40.10;;;10.50;79.90;;;;;;5010090;28;20048;-63
2022/01/26 16:05:27;;;;;;;53.60;38.72;;;10.40;80.00;;;;;;5029655;28;20059;-63
2022/01/26 16:08:09;;;;;;;52.58;39.53;;;10.40;80.10;;;;;;5031804;28;20033;-61
2022/01/26 16:16:34;;;;;;;33.30;23.50;;;10.10;81.50;;;;;;5031018;28;20026;-62
2022/01/26 16:21:22;;;;;;;33.35;24.75;;;10.50;90.90;;;;;;5021904;28;20040;-59
2022/01/26 16:27:40;;;;;;;32.05;23.00;;;10.80;91.20;;;;;;5024301;28;20060;-62
2022/01/26 16:35:28;;;;;;;40.17;30.80;;;10.60;83.30;;;;;;5024082;28;20525;-62
2022/01/26 17:24:24;;;;;;;44.78;30.95;;;9.80;83.90;;;;;;5032643;28;20390;-62
2022/01/26 18:15:35;;;;;;;43.03;30.85;;;9.60;85.60;;;;;;5035763;28;20112;-59
2022/01/26 18:26:27;;;;;;;40.97;29.35;;;9.60;85.40;;;;;;5035720;28;20434;-64
2022/01/26 18:50:20;;;;;;;39.55;28.38;;;9.70;86.00;;;;;;5035225;28;20045;-59
2022/01/26 18:52:46;;;;;;;40.75;30.23;;;9.60;85.60;;;;;;5034991;28;20026;-64
2022/01/26 18:55:14;;;;;;;41.35;30.73;;;9.60;85.50;;;;;;5035203;28;20029;-59
2022/01/26 18:57:40;;;;;;;40.35;29.17;;;9.60;85.20;;;;;;5034977;28;20405;-59
2022/01/26 19:00:06;;;;;;;38.30;28.63;;;9.60;85.50;;;;;;5035228;28;20022;-62
2022/01/26 19:02:32;;;;;;;38.35;28.52;;;9.60;85.80;;;;;;5034830;28;20075;-58
2022/01/26 19:04:57;;;;;;;36.33;27.05;;;9.70;85.70;;;;;;5034736;28;20041;-60
2022/01/26 19:07:24;;;;;;;50.53;34.40;;;9.60;86.60;;;;;;5026232;28;20033;-60
2022/01/26 19:09:51;;;;;;;35.25;27.15;;;9.60;85.80;;;;;;5034955;28;20029;-63